Arcola, Pennsylvania
Current Conditions -  °F | °C
As of 7:54 AM on Monday 24 Nov 2014 (Local Time) from KPTW Reporting Station
Overcast Overcast  
Wind Chill: 18°   Ceiling: 2200
Heat Index: 18°   Visibility: 10mi
Dew Point: 15°   Wind: 10mph
Humidity: 81%   Direction: 200°SSW
Pressure: 29.68"   Gusts: 17mph
Location:  40.15°N, 75.46°W
Report Text: KPTW 241254Z AUTO 20009G15KT 10SM OVC022 18/15 A2968 RMK AO2 SLP049 T01830150
Loading
Personal Weather Stations






























Interactive Weather Map New forecast layout! Learn more

10-Day Weather Forecast

Advertisements
Track Severe Weather on mobile